Time;durP1;ratioP1;P1;durP2;ratioP2;P2;SDS_P1;SDS_P2;PMS_P1;PMS_P2;Temp;Humidity;BMP_temperature;BMP_pressure;BME280_temperature;BME280_humidity;BME280_pressure;Samples;Min_cycle;Max_cycle;Signal;HPM_P1;HPM_P2
2021/04/21 00:02:20;;;;;;;17.10;12.30;;;9.20;99.90;;;;;;5069075;28;20205;-78
2021/04/21 00:05:07;;;;;;;19.67;13.40;;;9.10;99.90;;;;;;5066408;28;20245;-77
2021/04/21 00:07:53;;;;;;;21.40;13.93;;;9.10;99.90;;;;;;5059967;28;20292;-78
2021/04/21 00:10:39;;;;;;;19.97;13.73;;;9.00;99.90;;;;;;5059373;28;20202;-77
2021/04/21 00:13:25;;;;;;;21.03;13.53;;;9.00;99.90;;;;;;5062016;28;20259;-77
2021/04/21 00:16:11;;;;;;;22.77;14.93;;;8.90;99.90;;;;;;5059079;28;20260;-77
2021/04/21 00:18:56;;;;;;;22.57;14.77;;;8.90;99.90;;;;;;5071530;28;20280;-77
2021/04/21 00:21:43;;;;;;;23.47;15.17;;;8.90;99.90;;;;;;5059701;28;20259;-78
2021/04/21 00:24:30;;;;;;;22.27;14.57;;;8.80;99.90;;;;;;5070734;28;20198;-77
2021/04/21 00:27:15;;;;;;;22.80;14.60;;;8.80;99.90;;;;;;5071405;28;20256;-77
2021/04/21 00:30:05;;;;;;;25.70;16.27;;;8.80;99.90;;;;;;5057665;28;20256;-77
2021/04/21 00:32:52;;;;;;;23.83;15.90;;;8.70;99.90;;;;;;5072124;28;20700;-77
2021/04/21 00:35:40;;;;;;;25.80;16.10;;;8.70;99.90;;;;;;5063530;28;20259;-77
2021/04/21 00:38:26;;;;;;;26.20;16.77;;;8.70;99.90;;;;;;5072228;28;20221;-77
2021/04/21 00:41:19;;;;;;;25.97;17.33;;;8.60;99.90;;;;;;5071379;28;20251;-77
2021/04/21 00:44:21;;;;;;;27.47;17.10;;;8.60;99.90;;;;;;5068493;28;20214;-78
2021/04/21 00:47:08;;;;;;;26.07;18.77;;;8.60;99.90;;;;;;5071360;28;20208;-77
2021/04/21 00:50:00;;;;;;;28.03;17.77;;;8.60;99.90;;;;;;5070779;28;20254;-77
2021/04/21 00:52:49;;;;;;;27.37;18.07;;;8.50;99.90;;;;;;5067280;28;20222;-77
2021/04/21 00:55:36;;;;;;;30.20;19.30;;;8.50;99.90;;;;;;5057474;28;20197;-77
2021/04/21 00:58:39;;;;;;;28.70;18.73;;;8.50;99.90;;;;;;5070778;28;20214;-77
2021/04/21 01:01:25;;;;;;;30.37;18.90;;;8.40;99.90;;;;;;5060384;28;20218;-77
2021/04/21 01:04:12;;;;;;;26.40;18.97;;;8.40;99.90;;;;;;5060669;28;20213;-77
2021/04/21 01:06:57;;;;;;;29.97;19.13;;;8.30;99.90;;;;;;5065209;28;20699;-77
2021/04/21 01:09:47;;;;;;;26.47;17.93;;;8.30;99.90;;;;;;5061789;28;20268;-77
2021/04/21 01:12:34;;;;;;;26.73;18.37;;;8.30;99.90;;;;;;5074098;28;20233;-77
2021/04/21 01:15:21;;;;;;;29.63;19.50;;;8.20;99.90;;;;;;5072978;28;20252;-77
2021/04/21 01:18:09;;;;;;;28.83;19.20;;;8.20;99.90;;;;;;5064519;28;20298;-77
2021/04/21 01:20:58;;;;;;;32.43;21.17;;;8.10;99.90;;;;;;5062018;28;20252;-77
2021/04/21 01:24:04;;;;;;;32.87;19.67;;;8.10;99.90;;;;;;5073810;28;20206;-77
2021/04/21 01:26:58;;;;;;;28.67;19.53;;;8.10;99.90;;;;;;5073635;28;20198;-77
2021/04/21 01:29:47;;;;;;;33.93;21.07;;;8.00;99.90;;;;;;5068127;28;20632;-77
2021/04/21 01:32:33;;;;;;;33.70;20.40;;;7.90;99.90;;;;;;5069440;28;20276;-77
2021/04/21 01:35:21;;;;;;;31.80;21.83;;;7.90;99.90;;;;;;5061466;28;20244;-77
2021/04/21 01:38:06;;;;;;;33.07;22.43;;;7.80;99.90;;;;;;5073671;28;20282;-78
2021/04/21 01:40:53;;;;;;;35.70;22.13;;;7.80;99.90;;;;;;5070855;28;20293;-77
2021/04/21 01:43:43;;;;;;;32.10;21.73;;;7.80;99.90;;;;;;5068210;28;20202;-77
2021/04/21 01:46:36;;;;;;;33.90;22.30;;;7.70;99.90;;;;;;5073302;28;20308;-77
2021/04/21 01:49:54;;;;;;;34.17;22.07;;;7.70;99.90;;;;;;5070435;28;20326;-77
2021/04/21 01:52:49;;;;;;;33.27;23.10;;;7.70;99.90;;;;;;5069913;28;20283;-77
2021/04/21 01:55:46;;;;;;;36.23;24.47;;;7.70;99.90;;;;;;5066636;28;20731;-77
2021/04/21 01:58:36;;;;;;;34.50;23.23;;;7.60;99.90;;;;;;5068745;28;20234;-79
2021/04/21 02:01:33;;;;;;;34.07;22.67;;;7.60;99.90;;;;;;5064138;28;20217;-77
2021/04/21 02:04:46;;;;;;;34.30;23.20;;;7.60;99.90;;;;;;5071480;28;20201;-76
2021/04/21 02:07:41;;;;;;;32.53;22.07;;;7.60;99.90;;;;;;5070377;28;20240;-77
2021/04/21 02:10:35;;;;;;;35.10;22.43;;;7.60;99.90;;;;;;5058683;28;20269;-79
2021/04/21 02:13:33;;;;;;;32.47;22.30;;;7.50;99.90;;;;;;5059063;28;20277;-77
2021/04/21 02:16:22;;;;;;;31.77;21.90;;;7.50;99.90;;;;;;5058921;28;20776;-77
2021/04/21 02:19:24;;;;;;;34.37;21.73;;;7.50;99.90;;;;;;5068127;28;20599;-77
2021/04/21 02:22:20;;;;;;;32.00;21.80;;;7.50;99.90;;;;;;5061746;28;20237;-77
2021/04/21 02:25:20;;;;;;;28.40;20.80;;;7.50;99.90;;;;;;5069551;28;20210;-77
2021/04/21 02:28:15;;;;;;;31.17;21.43;;;7.60;99.90;;;;;;5068618;28;20211;-77
2021/04/21 02:31:12;;;;;;;32.90;21.47;;;7.60;99.90;;;;;;5072568;28;20202;-77
2021/04/21 02:34:04;;;;;;;33.50;22.70;;;7.60;99.90;;;;;;5058065;28;20207;-77
2021/04/21 02:36:59;;;;;;;29.43;21.43;;;7.60;99.90;;;;;;5061638;28;20202;-77
2021/04/21 02:39:56;;;;;;;32.50;21.47;;;7.70;99.90;;;;;;5072463;28;20264;-77
2021/04/21 02:42:48;;;;;;;32.93;21.83;;;7.70;99.90;;;;;;5066238;28;20230;-77
2021/04/21 02:45:40;;;;;;;28.90;19.90;;;7.70;99.90;;;;;;5055362;28;20210;-78
2021/04/21 02:48:38;;;;;;;28.90;19.23;;;7.80;99.90;;;;;;5071128;28;20272;-77
2021/04/21 02:51:32;;;;;;;28.70;20.03;;;7.80;99.90;;;;;;5071682;28;20198;-77
2021/04/21 02:54:24;;;;;;;27.77;19.80;;;7.80;99.90;;;;;;5070804;28;20206;-78
2021/04/21 02:57:15;;;;;;;33.03;19.13;;;7.80;99.90;;;;;;5071954;28;20210;-78
2021/04/21 03:00:05;;;;;;;30.67;19.10;;;7.80;99.90;;;;;;5071762;28;20214;-77
2021/04/21 03:03:02;;;;;;;33.07;20.03;;;7.80;99.90;;;;;;5073147;28;20576;-78
2021/04/21 03:05:51;;;;;;;25.93;18.20;;;7.80;99.90;;;;;;5062221;28;20803;-77
2021/04/21 03:08:40;;;;;;;27.70;19.43;;;7.80;99.90;;;;;;5073642;28;20332;-77
2021/04/21 03:11:28;;;;;;;28.90;18.97;;;7.70;99.90;;;;;;5074673;28;20628;-77
2021/04/21 03:14:17;;;;;;;30.67;20.30;;;7.70;99.90;;;;;;5061322;28;20282;-77
2021/04/21 03:17:08;;;;;;;31.60;19.67;;;7.70;99.90;;;;;;5078454;28;20206;-77
2021/04/21 03:19:57;;;;;;;27.53;18.57;;;7.60;99.90;;;;;;5078915;28;20635;-77
2021/04/21 03:22:45;;;;;;;29.03;19.93;;;7.60;99.90;;;;;;5062438;28;20206;-77
2021/04/21 03:25:32;;;;;;;30.67;20.40;;;7.50;99.90;;;;;;5067260;28;20207;-78
2021/04/21 03:28:20;;;;;;;30.93;20.20;;;7.50;99.90;;;;;;5056259;28;20215;-77
2021/04/21 03:31:09;;;;;;;26.97;20.53;;;7.50;99.90;;;;;;5070507;28;20245;-77
2021/04/21 03:33:59;;;;;;;32.27;20.83;;;7.40;99.90;;;;;;5058383;28;20253;-77
2021/04/21 03:36:44;;;;;;;27.20;19.30;;;7.40;99.90;;;;;;5071704;28;20206;-77
2021/04/21 03:39:29;;;;;;;31.93;20.67;;;7.40;99.90;;;;;;5070949;28;20225;-77
2021/04/21 03:42:14;;;;;;;26.83;19.60;;;7.30;99.90;;;;;;5070993;28;20210;-78
2021/04/21 03:45:01;;;;;;;33.37;20.77;;;7.30;99.90;;;;;;5057277;28;20311;-77
2021/04/21 03:47:46;;;;;;;28.07;19.90;;;7.20;99.90;;;;;;5070065;28;20638;-78
2021/04/21 03:50:31;;;;;;;34.80;21.53;;;7.20;99.90;;;;;;5063857;28;20748;-77
2021/04/21 03:53:18;;;;;;;34.57;22.53;;;7.20;99.90;;;;;;5066860;28;20820;-77
2021/04/21 03:56:05;;;;;;;30.97;22.67;;;7.10;99.90;;;;;;5064852;28;20291;-77
2021/04/21 03:58:53;;;;;;;31.97;23.03;;;7.10;99.90;;;;;;5070416;28;20238;-78
2021/04/21 04:01:42;;;;;;;32.30;21.83;;;7.10;99.90;;;;;;5070660;28;20629;-77
2021/04/21 04:04:31;;;;;;;33.87;23.13;;;7.00;99.90;;;;;;5065307;28;20273;-77
2021/04/21 04:07:19;;;;;;;34.77;22.37;;;7.00;99.90;;;;;;5071406;28;20677;-77
2021/04/21 04:10:09;;;;;;;33.93;24.40;;;7.00;99.90;;;;;;5071690;28;20631;-78
2021/04/21 04:12:57;;;;;;;33.27;26.00;;;7.00;99.90;;;;;;5065086;28;20210;-77
2021/04/21 04:15:43;;;;;;;37.53;25.63;;;7.00;99.90;;;;;;5072937;28;20205;-77
2021/04/21 04:18:31;;;;;;;37.80;25.47;;;7.00;99.90;;;;;;5076737;28;20225;-77
2021/04/21 04:21:19;;;;;;;40.53;28.00;;;7.00;99.90;;;;;;5065309;28;20209;-77
2021/04/21 04:24:08;;;;;;;42.97;29.17;;;7.00;99.90;;;;;;5067821;28;20230;-77
2021/04/21 04:26:57;;;;;;;41.53;29.77;;;7.10;99.90;;;;;;5076358;28;20328;-77
2021/04/21 04:29:43;;;;;;;46.57;30.27;;;7.10;99.90;;;;;;5070880;28;20319;-78
2021/04/21 04:32:28;;;;;;;44.20;32.27;;;7.10;99.90;;;;;;5069543;28;20244;-77
2021/04/21 04:35:14;;;;;;;46.93;33.47;;;7.10;99.90;;;;;;5070337;28;20206;-77
2021/04/21 04:38:01;;;;;;;46.47;31.80;;;7.10;99.90;;;;;;5081115;28;20276;-77
2021/04/21 04:40:46;;;;;;;50.53;32.67;;;7.20;99.90;;;;;;5083372;28;20275;-77
2021/04/21 04:43:34;;;;;;;41.27;30.10;;;7.20;99.90;;;;;;5081935;28;20255;-77
2021/04/21 04:46:21;;;;;;;44.20;30.40;;;7.40;99.90;;;;;;5077441;28;20210;-78
2021/04/21 04:49:08;;;;;;;41.77;31.27;;;7.20;99.90;;;;;;5069720;28;20230;-78
2021/04/21 04:51:58;;;;;;;46.93;34.47;;;7.20;99.90;;;;;;5066674;28;20214;-78
2021/04/21 04:54:43;;;;;;;47.27;32.33;;;7.30;99.90;;;;;;5065988;28;20577;-78
2021/04/21 04:57:30;;;;;;;47.50;34.00;;;7.30;99.90;;;;;;5066803;28;20230;-78
2021/04/21 05:00:18;;;;;;;48.17;34.53;;;7.40;99.90;;;;;;5070972;28;20269;-78
2021/04/21 05:03:13;;;;;;;54.43;37.47;;;7.40;99.90;;;;;;5069583;28;20210;-77
2021/04/21 05:06:02;;;;;;;58.83;39.33;;;7.50;99.90;;;;;;5066659;28;20823;-77
2021/04/21 05:08:53;;;;;;;51.57;37.83;;;7.50;99.90;;;;;;5070425;28;20229;-77
2021/04/21 05:11:43;;;;;;;45.27;36.43;;;7.50;99.90;;;;;;5076421;28;20221;-77
2021/04/21 05:14:31;;;;;;;49.57;37.10;;;7.60;99.90;;;;;;5073464;28;20252;-78
2021/04/21 05:18:02;;;;;;;52.30;36.50;;;7.60;99.90;;;;;;5070739;28;20298;-78
2021/04/21 05:21:25;;;;;;;48.93;35.07;;;7.70;99.90;;;;;;5068457;28;20244;-78
2021/04/21 05:24:58;;;;;;;45.93;33.53;;;7.70;99.90;;;;;;5072736;28;20210;-79
2021/04/21 05:28:20;;;;;;;45.43;33.20;;;7.70;99.90;;;;;;5024099;28;20208;-79
2021/04/21 05:31:42;;;;;;;44.07;31.27;;;7.70;99.90;;;;;;5067251;28;20315;-79
2021/04/21 05:35:27;;;;;;;43.77;33.90;;;7.70;99.90;;;;;;5063674;28;20206;-78
2021/04/21 05:39:00;;;;;;;47.20;34.23;;;7.80;99.90;;;;;;5073452;28;20218;-79
2021/04/21 05:42:21;;;;;;;46.30;34.27;;;7.80;99.90;;;;;;5071390;28;20435;-79
2021/04/21 05:45:52;;;;;;;50.07;35.00;;;7.80;99.90;;;;;;5066461;28;20238;-77
2021/04/21 05:49:13;;;;;;;47.27;35.37;;;7.70;99.90;;;;;;5052766;28;20233;-79
2021/04/21 05:52:08;;;;;;;46.90;34.80;;;7.80;99.90;;;;;;5074256;28;20206;-79
2021/04/21 05:55:13;;;;;;;51.73;35.97;;;7.80;99.90;;;;;;5075236;28;20271;-79
2021/04/21 05:58:34;;;;;;;55.67;37.80;;;7.80;99.90;;;;;;5079595;28;20233;-79
2021/04/21 06:01:26;;;;;;;54.93;38.17;;;7.80;99.90;;;;;;5070034;28;20233;-79
2021/04/21 06:04:10;;;;;;;47.83;38.10;;;7.90;99.90;;;;;;5070866;28;20253;-79
2021/04/21 06:07:05;;;;;;;46.73;37.83;;;7.90;99.90;;;;;;5075433;28;20237;-79
2021/04/21 06:09:50;;;;;;;47.67;38.20;;;8.00;99.90;;;;;;5077094;28;20253;-79
2021/04/21 06:12:36;;;;;;;49.37;37.00;;;8.00;99.90;;;;;;5074757;28;20226;-79
2021/04/21 06:15:29;;;;;;;52.67;38.00;;;8.10;99.90;;;;;;5071467;28;20284;-79
2021/04/21 06:18:15;;;;;;;47.70;36.80;;;8.20;99.90;;;;;;5075876;28;20213;-79
2021/04/21 06:21:00;;;;;;;50.93;36.83;;;8.30;99.90;;;;;;5071933;28;20774;-79
2021/04/21 06:23:45;;;;;;;51.13;34.83;;;8.40;99.90;;;;;;5068528;28;20218;-79
2021/04/21 06:26:31;;;;;;;46.17;34.97;;;8.50;99.90;;;;;;5076014;28;20312;-79
2021/04/21 06:29:16;;;;;;;42.37;33.90;;;8.70;99.90;;;;;;5078112;28;20750;-79
2021/04/21 06:32:02;;;;;;;38.57;31.27;;;8.80;99.90;;;;;;5080873;28;20205;-80
2021/04/21 06:35:03;;;;;;;38.33;30.47;;;8.90;99.90;;;;;;5072351;28;20225;-79
2021/04/21 06:37:48;;;;;;;36.03;29.17;;;9.10;99.90;;;;;;5076686;28;20206;-79
2021/04/21 06:40:35;;;;;;;36.30;27.73;;;9.20;99.90;;;;;;5076769;28;20623;-79
2021/04/21 06:43:24;;;;;;;34.27;26.13;;;9.40;99.90;;;;;;5071635;28;20573;-79
2021/04/21 06:46:10;;;;;;;31.43;25.57;;;9.50;99.90;;;;;;5069212;28;20283;-77
2021/04/21 06:48:57;;;;;;;32.07;25.03;;;9.60;99.90;;;;;;5060437;28;20218;-77
2021/04/21 06:51:43;;;;;;;33.27;25.10;;;9.70;99.90;;;;;;5067382;28;20205;-77
2021/04/21 06:54:27;;;;;;;29.33;24.20;;;9.80;99.90;;;;;;5068016;28;20619;-77
2021/04/21 06:57:12;;;;;;;31.20;24.83;;;9.80;99.90;;;;;;5062105;28;20687;-77
2021/04/21 07:00:07;;;;;;;30.70;24.07;;;9.90;99.90;;;;;;5063472;28;20225;-77
2021/04/21 07:02:53;;;;;;;30.20;25.10;;;10.00;99.90;;;;;;5069665;28;20221;-77
2021/04/21 07:05:41;;;;;;;27.67;22.40;;;10.10;99.90;;;;;;5068755;28;20205;-77
2021/04/21 07:08:32;;;;;;;29.33;23.60;;;10.20;99.90;;;;;;5061964;28;20238;-77
2021/04/21 07:11:17;;;;;;;27.57;22.63;;;10.20;99.90;;;;;;5068012;28;20233;-77
2021/04/21 07:14:03;;;;;;;28.97;23.43;;;10.30;99.90;;;;;;5068381;28;20703;-77
2021/04/21 07:16:52;;;;;;;29.87;24.43;;;10.40;99.90;;;;;;5071087;28;20225;-77
2021/04/21 07:19:39;;;;;;;29.67;22.83;;;10.50;99.90;;;;;;5065640;28;20783;-77
2021/04/21 07:22:24;;;;;;;35.97;26.57;;;10.60;99.90;;;;;;5067687;28;20214;-77
2021/04/21 07:25:14;;;;;;;32.50;26.03;;;10.70;99.90;;;;;;5067566;28;20757;-77
2021/04/21 07:27:59;;;;;;;32.10;26.20;;;10.80;99.90;;;;;;5064914;28;20203;-77
2021/04/21 07:30:44;;;;;;;33.90;25.33;;;10.80;99.90;;;;;;5067538;28;20210;-77
2021/04/21 07:33:33;;;;;;;34.60;26.20;;;11.00;99.90;;;;;;5061632;28;20258;-77
2021/04/21 07:36:19;;;;;;;33.97;26.00;;;11.00;99.90;;;;;;5069828;28;20206;-77
2021/04/21 07:39:06;;;;;;;32.40;25.27;;;11.10;99.90;;;;;;5071848;28;20233;-77
2021/04/21 07:41:52;;;;;;;33.77;25.83;;;11.20;99.90;;;;;;5070928;28;20241;-77
2021/04/21 07:44:50;;;;;;;31.20;24.40;;;11.30;99.90;;;;;;5059450;28;20213;-77
2021/04/21 07:47:35;;;;;;;26.53;20.93;;;11.40;99.90;;;;;;5069567;28;20238;-77
2021/04/21 07:50:28;;;;;;;25.00;17.13;;;11.50;99.90;;;;;;5066089;28;20222;-77
2021/04/21 07:53:15;;;;;;;24.20;18.80;;;11.60;99.90;;;;;;5063163;28;20202;-77
2021/04/21 07:56:03;;;;;;;28.67;22.47;;;11.70;99.90;;;;;;5067846;28;20224;-77
2021/04/21 07:58:50;;;;;;;24.73;20.20;;;11.80;99.90;;;;;;5071978;28;20223;-77
2021/04/21 08:01:35;;;;;;;26.20;19.63;;;11.90;99.90;;;;;;5071383;28;20337;-77
2021/04/21 08:04:25;;;;;;;24.27;20.20;;;12.00;99.90;;;;;;5065876;28;20207;-79
2021/04/21 08:07:09;;;;;;;26.43;20.60;;;12.10;99.90;;;;;;5063820;28;20213;-78
2021/04/21 08:09:55;;;;;;;24.47;19.50;;;12.20;99.90;;;;;;5069690;28;20248;-77
2021/04/21 08:12:40;;;;;;;24.53;19.03;;;12.30;99.90;;;;;;5069030;28;20240;-78
2021/04/21 08:15:29;;;;;;;25.27;18.43;;;12.40;99.90;;;;;;5057086;28;20299;-77
2021/04/21 08:18:14;;;;;;;22.30;18.20;;;12.60;99.90;;;;;;5069905;28;20228;-77
2021/04/21 08:20:59;;;;;;;24.80;19.10;;;12.70;99.90;;;;;;5073564;28;20269;-77
2021/04/21 08:23:44;;;;;;;24.93;18.33;;;12.80;99.90;;;;;;5065989;28;20218;-77
2021/04/21 08:26:29;;;;;;;20.73;16.67;;;13.00;99.90;;;;;;5071410;28;20261;-77
2021/04/21 08:29:15;;;;;;;28.00;18.80;;;13.10;99.90;;;;;;5075182;28;20235;-77
2021/04/21 08:32:01;;;;;;;22.03;17.30;;;13.30;99.90;;;;;;5072566;28;20213;-77
2021/04/21 08:34:47;;;;;;;20.17;15.60;;;13.50;99.90;;;;;;5061381;28;20250;-78
2021/04/21 08:37:32;;;;;;;21.07;15.73;;;13.60;99.90;;;;;;5072650;28;20208;-77
2021/04/21 08:40:20;;;;;;;22.50;15.93;;;13.80;99.90;;;;;;5072547;28;20265;-77
2021/04/21 08:43:08;;;;;;;24.60;15.83;;;13.90;99.90;;;;;;5059643;28;20296;-76
2021/04/21 08:45:53;;;;;;;18.40;14.53;;;14.10;99.90;;;;;;5069910;28;20268;-76
2021/04/21 08:48:40;;;;;;;19.53;15.57;;;14.20;99.90;;;;;;5071984;28;20807;-76
2021/04/21 08:51:26;;;;;;;20.97;15.90;;;14.40;99.90;;;;;;5071026;28;20204;-76
2021/04/21 08:54:12;;;;;;;21.13;15.77;;;14.50;99.90;;;;;;5071128;28;20216;-76
2021/04/21 08:56:59;;;;;;;22.70;15.93;;;14.70;99.90;;;;;;5069088;28;20244;-76
2021/04/21 08:59:45;;;;;;;22.63;16.83;;;14.80;99.90;;;;;;5070413;28;20236;-76
2021/04/21 09:02:30;;;;;;;18.90;15.43;;;15.00;99.90;;;;;;5061951;28;20674;-76
2021/04/21 09:05:18;;;;;;;26.23;17.07;;;15.10;99.90;;;;;;5066858;28;20205;-76
2021/04/21 09:08:03;;;;;;;21.47;17.17;;;15.30;99.90;;;;;;5070895;28;20241;-76
2021/04/21 09:10:48;;;;;;;20.40;14.93;;;15.40;99.90;;;;;;5062869;28;20291;-76
2021/04/21 09:13:34;;;;;;;17.00;14.17;;;15.60;99.90;;;;;;5062160;28;20583;-76
2021/04/21 09:16:19;;;;;;;16.67;14.13;;;15.80;99.90;;;;;;5072161;28;20579;-77
2021/04/21 09:19:10;;;;;;;20.00;15.13;;;16.00;99.90;;;;;;5072303;28;20310;-77
2021/04/21 09:22:10;;;;;;;17.67;12.77;;;16.20;99.90;;;;;;5068335;28;20219;-77
2021/04/21 09:24:59;;;;;;;15.27;10.03;;;16.50;99.90;;;;;;5075356;28;20257;-77
2021/04/21 09:27:53;;;;;;;16.13;11.70;;;16.80;99.90;;;;;;5071149;28;20726;-77
2021/04/21 09:30:42;;;;;;;14.63;10.50;;;17.30;99.90;;;;;;5062220;28;20249;-77
2021/04/21 09:33:28;;;;;;;12.70;10.27;;;17.90;99.90;;;;;;5061604;28;20718;-78
2021/04/21 09:36:32;;;;;;;15.03;10.80;;;18.60;99.90;;;;;;5071514;28;20678;-78
2021/04/21 09:39:19;;;;;;;15.43;11.47;;;19.50;99.90;;;;;;5070041;28;20240;-78
2021/04/21 09:42:04;;;;;;;15.23;11.13;;;20.40;99.90;;;;;;5070101;28;20223;-78
2021/04/21 09:44:50;;;;;;;17.93;10.97;;;21.20;99.90;;;;;;5066060;28;20648;-78
2021/04/21 09:47:35;;;;;;;15.23;10.87;;;21.90;99.40;;;;;;5072865;28;20227;-78
2021/04/21 09:50:24;;;;;;;14.43;10.47;;;22.80;99.90;;;;;;5069607;28;21923;-78
2021/04/21 09:53:20;;;;;;;14.27;10.70;;;23.20;96.10;;;;;;5068777;28;20258;-78
2021/04/21 09:56:09;;;;;;;14.23;9.67;;;23.80;93.50;;;;;;5068598;28;20238;-78
2021/04/21 09:58:56;;;;;;;13.20;9.17;;;24.40;88.80;;;;;;5068307;28;20283;-78
2021/04/21 10:01:42;;;;;;;13.43;9.57;;;24.90;81.00;;;;;;5069158;28;20224;-78
2021/04/21 10:04:30;;;;;;;11.63;9.02;;;25.40;76.80;;;;;;5072077;28;20233;-78
2021/04/21 10:07:19;;;;;;;13.13;8.55;;;25.80;72.80;;;;;;5074308;28;20209;-78
2021/04/21 10:10:05;;;;;;;10.32;8.32;;;26.30;71.70;;;;;;5072903;28;20271;-77
2021/04/21 10:12:50;;;;;;;11.13;9.00;;;26.60;70.40;;;;;;5059576;28;20581;-77
2021/04/21 10:15:35;;;;;;;12.75;9.05;;;26.90;67.50;;;;;;5070547;28;20213;-77
2021/04/21 10:18:20;;;;;;;10.57;9.15;;;27.10;63.00;;;;;;5068906;28;20423;-77
2021/04/21 10:21:05;;;;;;;12.68;9.00;;;27.40;64.10;;;;;;5065680;28;20276;-78
2021/04/21 10:23:51;;;;;;;13.25;8.82;;;27.80;61.60;;;;;;5069639;28;20299;-77
2021/04/21 10:26:36;;;;;;;13.88;9.65;;;28.20;60.60;;;;;;5075208;28;20212;-78
2021/04/21 10:29:21;;;;;;;12.43;9.10;;;28.70;57.70;;;;;;5075838;28;20220;-77
2021/04/21 10:32:07;;;;;;;14.50;8.90;;;29.10;56.20;;;;;;5060794;28;20711;-78
2021/04/21 10:34:53;;;;;;;10.50;8.80;;;29.40;56.10;;;;;;5068349;28;20260;-78
2021/04/21 10:37:40;;;;;;;13.48;8.98;;;29.80;56.50;;;;;;5074880;28;20592;-78
2021/04/21 10:40:27;;;;;;;14.93;10.32;;;30.20;55.40;;;;;;5075141;28;20227;-78
2021/04/21 10:43:12;;;;;;;12.27;9.27;;;30.60;54.10;;;;;;5067499;28;20601;-78
2021/04/21 10:45:58;;;;;;;12.90;8.90;;;31.00;53.00;;;;;;5077647;28;20268;-78
2021/04/21 10:48:44;;;;;;;13.52;8.50;;;31.40;53.20;;;;;;5071475;28;20269;-78
2021/04/21 10:51:34;;;;;;;10.00;8.35;;;31.90;52.40;;;;;;5077097;28;20527;-79
2021/04/21 10:54:32;;;;;;;12.23;10.48;;;32.50;51.10;;;;;;5081241;28;20214;-78
2021/04/21 10:57:26;;;;;;;14.38;10.00;;;33.00;51.10;;;;;;5079182;28;20722;-78
2021/04/21 11:00:15;;;;;;;11.40;9.55;;;33.50;49.40;;;;;;5074693;28;20784;-77
2021/04/21 11:03:08;;;;;;;12.93;9.40;;;33.90;48.50;;;;;;5081924;28;20277;-77
2021/04/21 11:05:58;;;;;;;13.77;10.30;;;34.30;47.00;;;;;;5069118;28;20217;-78
2021/04/21 11:09:01;;;;;;;12.43;10.65;;;34.70;46.50;;;;;;5074165;28;20313;-78
2021/04/21 11:11:48;;;;;;;12.73;10.85;;;35.10;47.90;;;;;;5075990;28;20193;-78
2021/04/21 11:14:59;;;;;;;12.10;10.18;;;35.40;45.50;;;;;;5069331;28;20221;-78
2021/04/21 11:18:13;;;;;;;13.77;11.00;;;35.70;47.40;;;;;;5064290;28;20587;-78
2021/04/21 11:21:01;;;;;;;14.75;11.52;;;36.00;46.50;;;;;;5071507;28;20252;-78
2021/04/21 11:23:55;;;;;;;11.60;10.25;;;36.40;44.00;;;;;;5061498;28;20213;-78
2021/04/21 11:26:42;;;;;;;11.77;10.30;;;36.60;43.80;;;;;;5071833;28;20206;-78
2021/04/21 11:29:31;;;;;;;12.95;11.50;;;36.90;43.60;;;;;;5071467;28;20739;-78
2021/04/21 11:32:17;;;;;;;12.98;11.45;;;37.20;42.20;;;;;;5066772;28;20634;-78
2021/04/21 11:35:26;;;;;;;15.05;11.45;;;37.40;43.10;;;;;;5061054;28;20209;-78
2021/04/21 11:38:43;;;;;;;14.07;12.57;;;37.40;42.70;;;;;;5062131;28;20217;-78
2021/04/21 11:41:39;;;;;;;16.40;12.80;;;37.40;45.90;;;;;;5056931;28;20361;-78
2021/04/21 11:44:54;;;;;;;14.77;12.80;;;37.10;45.10;;;;;;5067269;28;20654;-78
2021/04/21 11:47:41;;;;;;;14.93;12.38;;;36.80;45.10;;;;;;5072756;28;20252;-78
2021/04/21 11:50:30;;;;;;;15.25;13.65;;;36.50;43.70;;;;;;5058677;28;20281;-77
2021/04/21 11:53:18;;;;;;;16.30;13.57;;;36.30;43.30;;;;;;5065607;28;20202;-77
2021/04/21 11:56:06;;;;;;;16.58;13.90;;;35.90;42.80;;;;;;5065707;28;20202;-77
2021/04/21 11:58:55;;;;;;;14.75;13.25;;;35.40;43.50;;;;;;5070502;28;20226;-77
2021/04/21 12:01:40;;;;;;;15.07;13.48;;;35.00;45.60;;;;;;5065252;28;20229;-77
2021/04/21 12:04:25;;;;;;;15.48;12.57;;;34.50;45.90;;;;;;5068642;28;20202;-78
2021/04/21 12:07:11;;;;;;;15.00;11.85;;;34.20;45.00;;;;;;5071235;28;20210;-78
2021/04/21 12:09:59;;;;;;;15.98;13.02;;;34.00;45.00;;;;;;5069718;28;20592;-77
2021/04/21 12:12:44;;;;;;;16.25;13.27;;;33.80;44.10;;;;;;5064633;28;20210;-77
2021/04/21 12:15:29;;;;;;;14.23;11.10;;;33.50;43.90;;;;;;5066798;28;20290;-77
2021/04/21 12:18:27;;;;;;;12.68;10.50;;;33.20;44.60;;;;;;5064958;28;20217;-77
2021/04/21 12:21:24;;;;;;;13.82;10.25;;;32.80;44.50;;;;;;5064208;28;20731;-77
2021/04/21 12:24:10;;;;;;;12.15;10.48;;;32.40;45.80;;;;;;5065313;28;20570;-77
2021/04/21 12:26:56;;;;;;;12.30;10.90;;;32.00;45.10;;;;;;5069594;28;20703;-78
2021/04/21 12:29:41;;;;;;;16.45;14.35;;;31.60;46.60;;;;;;5062065;28;20287;-77
2021/04/21 12:32:28;;;;;;;18.38;16.23;;;31.20;47.10;;;;;;5068500;28;20209;-77
2021/04/21 12:35:14;;;;;;;18.75;14.80;;;30.70;48.30;;;;;;5064027;28;20298;-77
2021/04/21 12:38:02;;;;;;;17.67;14.77;;;30.20;49.40;;;;;;5061114;28;20217;-77
2021/04/21 12:40:48;;;;;;;19.67;14.82;;;29.70;50.40;;;;;;5070237;28;20240;-77
2021/04/21 12:43:34;;;;;;;20.27;15.02;;;29.00;50.80;;;;;;5066698;28;20228;-77
2021/04/21 12:46:21;;;;;;;18.25;15.48;;;28.60;51.80;;;;;;5073097;28;20201;-76
2021/04/21 12:49:06;;;;;;;17.90;14.52;;;27.90;53.50;;;;;;5080672;28;20255;-76
2021/04/21 12:51:51;;;;;;;17.52;13.48;;;27.50;55.40;;;;;;5085778;28;20282;-77
2021/04/21 12:54:38;;;;;;;19.48;16.77;;;27.30;56.00;;;;;;5076618;28;20280;-77
2021/04/21 12:57:25;;;;;;;17.35;13.82;;;27.20;54.20;;;;;;5072604;28;20291;-78
2021/04/21 13:00:11;;;;;;;15.23;12.57;;;27.50;55.50;;;;;;5062095;28;20240;-78
2021/04/21 13:02:56;;;;;;;18.40;13.38;;;27.80;55.10;;;;;;5066463;28;20202;-78
2021/04/21 13:05:49;;;;;;;18.45;12.68;;;28.00;53.90;;;;;;5073133;28;20237;-78
2021/04/21 13:08:38;;;;;;;15.77;11.40;;;28.10;54.10;;;;;;5065578;28;20311;-78
2021/04/21 13:11:31;;;;;;;14.50;10.85;;;28.20;54.40;;;;;;5073975;28;20244;-78
2021/04/21 13:14:21;;;;;;;14.23;10.38;;;28.30;53.60;;;;;;5071549;28;20257;-77
2021/04/21 13:17:07;;;;;;;14.63;9.65;;;28.60;53.20;;;;;;5065176;28;20206;-78
2021/04/21 13:19:54;;;;;;;12.27;8.63;;;28.70;52.20;;;;;;5067022;28;20233;-78
2021/04/21 13:22:39;;;;;;;12.02;8.80;;;28.80;52.40;;;;;;5066169;28;20264;-77
2021/04/21 13:25:24;;;;;;;12.05;9.27;;;28.70;51.90;;;;;;5066648;28;20213;-77
2021/04/21 13:28:18;;;;;;;14.63;8.68;;;28.70;52.30;;;;;;5069330;28;20259;-77
2021/04/21 13:31:25;;;;;;;11.82;8.45;;;28.60;52.20;;;;;;5066549;28;20227;-78
2021/04/21 13:34:10;;;;;;;8.85;6.07;;;28.40;52.20;;;;;;5072110;28;20202;-80
2021/04/21 13:36:55;;;;;;;10.25;6.55;;;28.10;51.60;;;;;;5076437;28;20209;-78
2021/04/21 13:39:40;;;;;;;11.10;6.25;;;27.80;52.10;;;;;;5065014;28;20269;-78
2021/04/21 13:42:26;;;;;;;10.07;6.20;;;27.70;52.50;;;;;;5070919;28;20603;-78
2021/04/21 13:45:13;;;;;;;8.05;5.80;;;27.50;52.40;;;;;;5065347;28;20216;-77
2021/04/21 13:47:59;;;;;;;8.35;5.72;;;27.40;52.30;;;;;;5073854;28;20225;-77
2021/04/21 13:50:44;;;;;;;8.85;5.68;;;27.30;52.30;;;;;;5070271;28;20301;-77
2021/04/21 13:53:29;;;;;;;9.52;5.32;;;27.30;52.90;;;;;;5073841;28;20260;-78
2021/04/21 13:56:14;;;;;;;7.28;4.60;;;27.10;53.30;;;;;;5069782;28;20237;-77
2021/04/21 13:58:59;;;;;;;8.10;4.78;;;27.00;53.00;;;;;;5069532;28;20264;-77
2021/04/21 14:01:43;;;;;;;6.25;4.57;;;26.80;52.60;;;;;;5079006;28;20248;-77
2021/04/21 14:04:29;;;;;;;6.77;4.70;;;26.70;52.90;;;;;;5069914;28;20307;-77
2021/04/21 14:07:13;;;;;;;6.23;4.80;;;26.50;54.80;;;;;;5073591;28;20693;-78
2021/04/21 14:09:58;;;;;;;6.90;4.47;;;26.30;54.60;;;;;;5075017;28;20237;-78
2021/04/21 14:12:44;;;;;;;7.47;4.63;;;26.40;54.20;;;;;;5067606;28;20219;-78
2021/04/21 14:15:29;;;;;;;5.10;3.97;;;26.50;53.40;;;;;;5070320;28;20200;-78
2021/04/21 14:18:14;;;;;;;7.60;4.38;;;26.80;54.80;;;;;;5073950;28;20609;-78
2021/04/21 14:20:59;;;;;;;4.72;3.85;;;27.00;53.80;;;;;;5072710;28;20221;-77
2021/04/21 14:23:44;;;;;;;4.13;3.10;;;27.10;53.70;;;;;;5067807;28;20701;-77
2021/04/21 14:26:29;;;;;;;7.00;4.18;;;27.30;53.10;;;;;;5074002;28;20241;-77
2021/04/21 14:29:13;;;;;;;6.40;3.33;;;27.40;51.70;;;;;;5065416;28;20226;-77
2021/04/21 14:31:59;;;;;;;5.82;3.20;;;27.50;52.20;;;;;;5074544;28;20627;-77